Terminal Aerodrome Forecast
Issued by NWS Brownsville, TX

Home | Current Version | Previous Version | Text Only | Print | Product List | Glossary On
Versions: 1 2 3 4 5 6 7 8 9 10 11 12 13
000
FTUS44 KBRO 270709 AAA
TAFHRL
TAF AMD
KHRL 270709Z 2707/2806 16008KT 4SM FU BR BKN015
      TEMPO 2707/2709 2SM BR BKN015
     FM270900 16008KT 2SM HZ BR OVC010
     FM271400 28015G22KT 5SM HZ BKN030
     FM271900 34010G18KT 6SM HZ SCT035
     FM280200 03010KT 5SM HZ OVC250=

USA.gov is the U.S. government's official web portal to all federal, state and local government web resources and services.